Time;durP1;ratioP1;P1;durP2;ratioP2;P2;SDS_P1;SDS_P2;PMS_P1;PMS_P2;Temp;Humidity;BMP_temperature;BMP_pressure;BME280_temperature;BME280_humidity;BME280_pressure;Samples;Min_cycle;Max_cycle;Signal;HPM_P1;HPM_P2
2022/03/10 00:00:56;;;;;;;;;;;5.50;99.90;;;;;;5017425;28;19913;-85
2022/03/10 00:03:21;;;;;;;;;;;5.40;99.90;;;;;;5015663;28;19916;-86
2022/03/10 00:05:47;;;;;;;;;;;5.40;99.90;;;;;;5015980;28;19944;-85
2022/03/10 00:08:12;;;;;;;;;;;5.40;99.90;;;;;;5021464;28;19910;-85
2022/03/10 00:10:38;;;;;;;;;;;5.40;99.90;;;;;;5023046;28;19917;-86
2022/03/10 00:13:03;;;;;;;;;;;5.30;99.90;;;;;;5040079;28;20476;-84
2022/03/10 00:15:29;;;;;;;;;;;5.30;99.90;;;;;;5037366;28;19917;-85
2022/03/10 00:17:54;;;;;;;;;;;5.30;99.90;;;;;;5006490;28;19910;-85
2022/03/10 00:20:20;;;;;;;;;;;5.30;99.90;;;;;;5015656;28;20036;-85
2022/03/10 00:22:47;;;;;;;;;;;5.30;99.90;;;;;;5022848;28;19921;-83
2022/03/10 00:25:13;;;;;;;;;;;5.30;99.90;;;;;;5024622;28;19910;-84
2022/03/10 00:27:39;;;;;;;;;;;5.30;99.90;;;;;;5025613;28;20298;-84
2022/03/10 00:30:05;;;;;;;;;;;5.20;99.90;;;;;;5025759;28;19916;-84
2022/03/10 00:32:30;;;;;;;;;;;5.20;99.90;;;;;;5024702;28;19917;-85
2022/03/10 00:34:56;;;;;;;;;;;5.20;99.90;;;;;;5024517;28;19916;-85
2022/03/10 00:37:21;;;;;;;;;;;5.20;99.90;;;;;;5021692;28;20297;-85
2022/03/10 00:39:48;;;;;;;;;;;5.20;99.90;;;;;;5024269;28;19965;-84
2022/03/10 00:42:16;;;;;;;;;;;5.20;99.90;;;;;;5015651;28;19921;-84
2022/03/10 00:44:41;;;;;;;;;;;5.10;99.90;;;;;;5024355;28;19960;-84
2022/03/10 00:47:07;;;;;;;;;;;5.00;99.90;;;;;;5024275;28;19917;-85
2022/03/10 00:49:32;;;;;;;;;;;4.90;99.90;;;;;;5024782;28;19916;-85
2022/03/10 00:51:58;;;;;;;;;;;4.90;99.90;;;;;;5024967;28;19913;-85
2022/03/10 00:54:23;;;;;;;;;;;4.90;99.90;;;;;;5038939;28;19909;-86
2022/03/10 00:56:49;;;;;;;;;;;4.80;99.90;;;;;;5039501;28;20400;-85
2022/03/10 00:59:14;;;;;;;;;;;4.90;99.90;;;;;;5044360;28;19964;-85
2022/03/10 01:01:40;;;;;;;;;;;4.90;99.90;;;;;;5024113;28;19913;-85
2022/03/10 01:04:05;;;;;;;;;;;4.90;99.90;;;;;;5022314;28;19996;-85
2022/03/10 01:06:31;;;;;;;;;;;4.90;99.90;;;;;;5022979;28;19920;-85
2022/03/10 01:08:56;;;;;;;;;;;4.80;99.90;;;;;;5025692;28;19977;-85
2022/03/10 01:11:21;;;;;;;;;;;4.90;99.90;;;;;;5024389;28;19909;-84
2022/03/10 01:13:47;;;;;;;;;;;4.80;99.90;;;;;;5024268;28;19916;-85
2022/03/10 01:16:12;;;;;;;;;;;4.80;99.90;;;;;;5023105;28;20374;-85
2022/03/10 01:18:38;;;;;;;;;;;4.80;99.90;;;;;;5024717;28;20354;-84
2022/03/10 01:21:03;;;;;;;;;;;4.80;99.90;;;;;;5020783;28;19921;-84
2022/03/10 01:23:29;;;;;;;;;;;4.80;99.90;;;;;;5036403;28;20305;-85
2022/03/10 01:25:54;;;;;;;;;;;4.80;99.90;;;;;;5021483;28;19909;-84
2022/03/10 01:28:20;;;;;;;;;;;4.70;99.90;;;;;;5020221;28;19909;-85
2022/03/10 01:30:45;;;;;;;;;;;4.70;99.90;;;;;;5022630;28;19910;-85
2022/03/10 01:33:11;;;;;;;;;;;4.70;99.90;;;;;;5029132;28;20027;-85
2022/03/10 01:35:36;;;;;;;;;;;4.70;99.90;;;;;;5021857;28;19938;-85
2022/03/10 01:38:02;;;;;;;;;;;4.70;99.90;;;;;;5023043;28;19981;-85
2022/03/10 01:40:27;;;;;;;;;;;4.60;99.90;;;;;;5023526;28;19918;-85
2022/03/10 01:42:53;;;;;;;;;;;4.60;99.90;;;;;;5021379;28;19984;-85
2022/03/10 01:45:18;;;;;;;;;;;4.60;99.90;;;;;;5024681;28;19920;-85
2022/03/10 01:47:44;;;;;;;;;;;4.50;99.90;;;;;;5033910;28;19898;-88
2022/03/10 01:50:10;;;;;;;;;;;4.50;99.90;;;;;;5030510;28;19956;-84
2022/03/10 01:52:36;;;;;;;;;;;4.40;99.90;;;;;;5005879;28;19917;-84
2022/03/10 01:55:02;;;;;;;;;;;4.40;99.90;;;;;;5015944;28;20001;-84
2022/03/10 01:57:27;;;;;;;;;;;4.40;99.90;;;;;;5020190;28;19914;-86
2022/03/10 01:59:53;;;;;;;;;;;4.40;99.90;;;;;;5017923;28;20004;-85
2022/03/10 02:02:18;;;;;;;;;;;4.40;99.90;;;;;;5016706;28;19910;-85
2022/03/10 02:04:44;;;;;;;;;;;4.30;99.90;;;;;;5018383;28;20000;-85
2022/03/10 02:10:16;;;;;;;;;;;4.30;99.90;;;;;;5018796;28;19909;-84
2022/03/10 02:12:40;;;;;;;;;;;4.30;99.90;;;;;;5018039;28;19921;-84
2022/03/10 02:17:56;;;;;;;;;;;4.30;99.90;;;;;;5019220;28;19920;-85
2022/03/10 02:20:21;;;;;;;;;;;4.30;99.90;;;;;;5019457;28;19913;-85
2022/03/10 02:22:47;;;;;;;;;;;4.30;99.90;;;;;;5019159;28;19952;-85
2022/03/10 02:25:13;;;;;;;;;;;4.30;99.90;;;;;;5018561;28;20052;-85
2022/03/10 02:27:38;;;;;;;;;;;4.30;99.90;;;;;;5017007;28;20635;-84
2022/03/10 02:30:04;;;;;;;;;;;4.30;99.90;;;;;;5017328;28;19941;-84
2022/03/10 02:32:30;;;;;;;;;;;4.20;99.90;;;;;;5033030;28;19917;-85
2022/03/10 02:34:55;;;;;;;;;;;4.20;99.90;;;;;;5031330;28;19909;-86
2022/03/10 02:37:21;;;;;;;;;;;4.10;99.90;;;;;;4999724;28;19953;-85
2022/03/10 02:39:47;;;;;;;;;;;4.10;99.90;;;;;;4999770;28;20374;-85
2022/03/10 02:42:13;;;;;;;;;;;4.10;99.90;;;;;;4999290;28;19910;-86
2022/03/10 02:44:39;;;;;;;;;;;4.10;99.90;;;;;;5004040;28;19914;-85
2022/03/10 02:47:05;;;;;;;;;;;4.00;99.90;;;;;;5018627;28;19917;-85
2022/03/10 02:49:30;;;;;;;;;;;4.00;99.90;;;;;;5016804;28;19921;-86
2022/03/10 02:51:56;;;;;;;;;;;3.90;99.90;;;;;;5018170;28;20017;-84
2022/03/10 02:54:21;;;;;;;;;;;3.90;99.90;;;;;;5016374;28;19917;-84
2022/03/10 02:56:47;;;;;;;;;;;3.90;99.90;;;;;;5018565;28;19913;-85
2022/03/10 02:59:12;;;;;;;;;;;3.80;99.90;;;;;;5016800;28;19963;-86
2022/03/10 03:01:38;;;;;;;;;;;3.80;99.90;;;;;;5033837;28;20306;-84
2022/03/10 03:04:03;;;;;;;;;;;3.80;99.90;;;;;;5017212;28;19913;-85
2022/03/10 03:06:29;;;;;;;;;;;3.80;99.90;;;;;;5017973;28;19910;-84
2022/03/10 03:08:54;;;;;;;;;;;3.80;99.90;;;;;;5016122;28;19921;-85
2022/03/10 03:11:20;;;;;;;;;;;3.80;99.90;;;;;;5018414;28;19909;-84
2022/03/10 03:13:45;;;;;;;;;;;3.90;99.90;;;;;;5016704;28;19913;-85
2022/03/10 03:16:11;;;;;;;;;;;3.90;99.90;;;;;;5017317;28;19923;-84
2022/03/10 03:18:36;;;;;;;;;;;3.90;99.90;;;;;;5017703;28;19985;-84
2022/03/10 03:21:02;;;;;;;;;;;3.90;99.90;;;;;;5037204;28;19916;-85
2022/03/10 03:23:27;;;;;;;;;;;3.90;99.90;;;;;;5033149;28;19921;-85
2022/03/10 03:25:53;;;;;;;;;;;3.90;99.90;;;;;;5033379;28;19910;-85
2022/03/10 03:28:22;;;;;;;;;;;3.90;99.90;;;;;;5018453;28;19917;-84
2022/03/10 03:30:48;;;;;;;;;;;3.90;99.90;;;;;;5017852;28;19996;-85
2022/03/10 03:33:13;;;;;;;;;;;3.90;99.90;;;;;;5017198;28;19968;-85
2022/03/10 03:35:39;;;;;;;;;;;3.80;99.90;;;;;;5018663;28;19920;-85
2022/03/10 03:38:04;;;;;;;;;;;3.80;99.90;;;;;;5018672;28;19921;-85
2022/03/10 03:40:30;;;;;;;;;;;3.80;99.90;;;;;;5017809;28;19918;-85
2022/03/10 03:42:55;;;;;;;;;;;3.80;99.90;;;;;;5014085;28;19953;-86
2022/03/10 03:45:22;;;;;;;;;;;3.70;99.90;;;;;;5018683;28;20385;-85
2022/03/10 03:47:48;;;;;;;;;;;3.70;99.90;;;;;;5017663;28;20139;-85
2022/03/10 03:50:13;;;;;;;;;;;3.70;99.90;;;;;;4998367;28;19976;-85
2022/03/10 03:52:39;;;;;;;;;;;3.70;99.90;;;;;;4997426;28;20290;-85
2022/03/10 03:55:05;;;;;;;;;;;3.70;99.90;;;;;;5029634;28;19941;-84
2022/03/10 03:57:30;;;;;;;;;;;3.60;99.90;;;;;;4999035;28;20333;-84
2022/03/10 03:59:56;;;;;;;;;;;3.60;99.90;;;;;;5012554;28;20424;-84
2022/03/10 04:02:22;;;;;;;;;;;3.50;99.90;;;;;;5023323;28;19936;-84
2022/03/10 04:04:47;;;;;;;;;;;3.50;99.90;;;;;;5016586;28;19913;-85
2022/03/10 04:07:14;;;;;;;;;;;3.50;99.90;;;;;;5049978;28;19913;-85
2022/03/10 04:09:40;;;;;;;;;;;3.50;99.90;;;;;;5021800;28;19910;-85
2022/03/10 04:12:05;;;;;;;;;;;3.40;99.90;;;;;;5006579;28;20263;-85
2022/03/10 04:14:31;;;;;;;;;;;3.40;99.90;;;;;;5015765;28;19913;-84
2022/03/10 04:16:56;;;;;;;;;;;3.40;99.90;;;;;;5016807;28;19921;-84
2022/03/10 04:19:22;;;;;;;;;;;3.30;99.90;;;;;;5024473;28;19940;-84
2022/03/10 04:21:47;;;;;;;;;;;3.30;99.90;;;;;;5017272;28;19997;-84
2022/03/10 04:24:12;;;;;;;;;;;3.30;99.90;;;;;;5032476;28;19926;-85
2022/03/10 04:26:39;;;;;;;;;;;3.30;99.90;;;;;;5018821;28;19964;-85
2022/03/10 04:29:04;;;;;;;;;;;3.30;99.90;;;;;;5016875;28;19910;-85
2022/03/10 04:31:30;;;;;;;;;;;3.20;99.90;;;;;;5018762;28;19916;-84
2022/03/10 04:33:55;;;;;;;;;;;3.20;99.90;;;;;;5017639;28;19910;-85
2022/03/10 04:36:21;;;;;;;;;;;3.30;99.90;;;;;;5018898;28;20366;-84
2022/03/10 04:38:46;;;;;;;;;;;3.20;99.90;;;;;;5018756;28;19992;-85
2022/03/10 04:41:12;;;;;;;;;;;3.20;99.90;;;;;;5017695;28;19916;-84
2022/03/10 04:43:38;;;;;;;;;;;3.20;99.90;;;;;;5018285;28;19929;-85
2022/03/10 04:46:04;;;;;;;;;;;3.20;99.90;;;;;;5018067;28;19909;-86
2022/03/10 04:48:29;;;;;;;;;;;3.20;99.90;;;;;;5019848;28;19995;-85
2022/03/10 04:50:55;;;;;;;;;;;3.20;99.90;;;;;;5020128;28;19909;-84
2022/03/10 04:53:21;;;;;;;;;;;3.20;99.90;;;;;;5019419;28;19937;-86
2022/03/10 04:55:46;;;;;;;;;;;3.20;99.90;;;;;;5023114;28;19918;-86
2022/03/10 04:58:12;;;;;;;;;;;3.10;99.90;;;;;;5023543;28;19917;-85
2022/03/10 05:00:37;;;;;;;;;;;3.10;99.90;;;;;;5023257;28;19953;-86
2022/03/10 05:03:03;;;;;;;;;;;3.10;99.90;;;;;;5023323;28;19936;-86
2022/03/10 05:05:29;;;;;;;;;;;3.10;99.90;;;;;;5030326;28;19921;-89
2022/03/10 05:07:54;;;;;;;;;;;3.10;99.90;;;;;;5037004;28;19909;-85
2022/03/10 05:10:20;;;;;;;;;;;3.10;99.90;;;;;;5021160;28;19940;-85
2022/03/10 05:12:49;;;;;;;;;;;3.00;99.90;;;;;;5017129;28;19968;-85
2022/03/10 05:15:19;;;;;;;;;;;3.00;99.90;;;;;;5018952;28;19909;-85
2022/03/10 05:17:45;;;;;;;;;;;3.00;99.90;;;;;;5016775;28;20007;-85
2022/03/10 05:20:11;;;;;;;;;;;3.00;99.90;;;;;;5019709;28;19953;-85
2022/03/10 05:22:43;;;;;;;;;;;2.90;99.90;;;;;;5017350;28;19921;-86
2022/03/10 05:25:09;;;;;;;;;;;2.90;99.90;;;;;;5018340;28;19992;-85
2022/03/10 05:27:35;;;;;;;;;;;2.90;99.90;;;;;;5018017;28;19968;-85
2022/03/10 05:30:00;;;;;;;;;;;2.80;99.90;;;;;;5017968;28;19909;-85
2022/03/10 05:32:26;;;;;;;;;;;2.80;99.90;;;;;;5018254;28;19914;-85
2022/03/10 05:34:51;;;;;;;;;;;2.80;99.90;;;;;;5017241;28;20302;-85
2022/03/10 05:37:17;;;;;;;;;;;2.80;99.90;;;;;;5017217;28;20012;-85
2022/03/10 05:39:42;;;;;;;;;;;2.80;99.90;;;;;;5018698;28;19989;-85
2022/03/10 05:42:08;;;;;;;;;;;2.80;99.90;;;;;;5018122;28;19917;-86
2022/03/10 05:44:33;;;;;;;;;;;2.70;99.90;;;;;;5017989;28;19948;-85
2022/03/10 05:46:59;;;;;;;;;;;2.80;99.90;;;;;;5017093;28;20370;-85
2022/03/10 05:49:24;;;;;;;;;;;2.80;99.90;;;;;;5017916;28;19917;-85
2022/03/10 05:51:49;;;;;;;;;;;2.80;99.90;;;;;;5015288;28;19971;-84
2022/03/10 05:54:15;;;;;;;;;;;2.80;99.90;;;;;;5015150;28;19909;-85
2022/03/10 05:56:41;;;;;;;;;;;2.80;99.90;;;;;;5016971;28;19976;-85
2022/03/10 05:59:06;;;;;;;;;;;2.80;99.90;;;;;;5018566;28;19909;-85
2022/03/10 06:01:31;;;;;;;;;;;2.80;99.90;;;;;;5034168;28;19998;-85
2022/03/10 06:03:57;;;;;;;;;;;2.70;99.90;;;;;;5018204;28;19985;-85
2022/03/10 06:06:23;;;;;;;;;;;2.70;99.90;;;;;;5017116;28;19916;-85
2022/03/10 06:08:48;;;;;;;;;;;2.70;99.90;;;;;;5017557;28;19910;-85
2022/03/10 06:11:14;;;;;;;;;;;2.80;99.90;;;;;;5030266;28;19952;-85
2022/03/10 06:13:40;;;;;;;;;;;2.80;99.90;;;;;;5034426;28;19921;-85
2022/03/10 06:16:05;;;;;;;;;;;2.80;99.90;;;;;;5017753;28;20397;-85
2022/03/10 06:18:31;;;;;;;;;;;2.90;99.90;;;;;;5018638;28;20396;-84
2022/03/10 06:20:57;;;;;;;;;;;2.90;99.90;;;;;;5018760;28;19917;-85
2022/03/10 06:23:22;;;;;;;;;;;3.00;99.90;;;;;;5016730;28;19913;-86
2022/03/10 06:25:48;;;;;;;;;;;3.10;99.90;;;;;;5018504;28;20023;-85
2022/03/10 06:28:13;;;;;;;;;;;3.40;99.90;;;;;;5013420;28;19952;-85
2022/03/10 06:30:39;;;;;;;;;;;3.50;99.90;;;;;;5016858;28;19913;-84
2022/03/10 06:33:04;;;;;;;;;;;3.70;99.90;;;;;;5018256;28;19965;-84
2022/03/10 06:35:30;;;;;;;;;;;3.80;99.90;;;;;;5017367;28;19913;-85
2022/03/10 06:37:55;;;;;;;;;;;3.90;99.90;;;;;;5017222;28;19996;-84
2022/03/10 06:40:21;;;;;;;;;;;4.00;99.90;;;;;;5017319;28;19926;-83
2022/03/10 06:42:46;;;;;;;;;;;4.20;99.90;;;;;;5015345;28;19914;-81
2022/03/10 06:45:12;;;;;;;;;;;4.40;99.90;;;;;;5016895;28;19916;-81
2022/03/10 06:47:37;;;;;;;;;;;4.60;99.90;;;;;;5016877;28;20298;-82
2022/03/10 06:50:04;;;;;;;;;;;5.90;99.90;;;;;;5016240;28;19988;-83
2022/03/10 06:52:30;;;;;;;;;;;8.10;99.90;;;;;;5017397;28;20355;-82
2022/03/10 06:54:56;;;;;;;;;;;10.50;99.90;;;;;;5016016;28;20366;-82
2022/03/10 06:57:21;;;;;;;;;;;13.10;99.90;;;;;;5016713;28;19914;-84
2022/03/10 06:59:47;;;;;;;;;;;15.50;99.90;;;;;;5036486;28;19924;-83
2022/03/10 07:02:12;;;;;;;;;;;17.50;99.90;;;;;;5037259;28;19909;-84
2022/03/10 07:04:37;;;;;;;;;;;19.20;99.90;;;;;;5019912;28;19924;-84
2022/03/10 07:07:03;;;;;;;;;;;20.50;99.90;;;;;;5018157;28;19913;-84
2022/03/10 07:09:29;;;;;;;;;;;21.50;99.90;;;;;;5016720;28;19999;-84
2022/03/10 07:11:54;;;;;;;;;;;22.00;99.90;;;;;;5018546;28;19967;-84
2022/03/10 07:14:20;;;;;;;;;;;22.70;99.90;;;;;;5015531;28;19968;-84
2022/03/10 07:16:45;;;;;;;;;;;23.30;99.90;;;;;;5018058;28;19940;-84
2022/03/10 07:19:12;;;;;;;;;;;23.80;99.90;;;;;;5016583;28;20000;-84
2022/03/10 07:21:38;;;;;;;;;;;24.50;99.90;;;;;;5018143;28;20382;-83
2022/03/10 07:24:05;;;;;;;;;;;25.50;99.90;;;;;;5017126;28;19910;-82
2022/03/10 07:26:30;;;;;;;;;;;26.00;99.90;;;;;;5018070;28;19945;-83
2022/03/10 07:28:59;;;;;;;;;;;26.70;99.90;;;;;;5019927;28;19921;-82
2022/03/10 07:31:28;;;;;;;;;;;27.00;99.90;;;;;;5019795;28;19921;-82
2022/03/10 07:33:53;;;;;;;;;;;27.50;99.90;;;;;;5019365;28;19913;-83
2022/03/10 07:36:19;;;;;;;;;;;28.40;99.90;;;;;;5023082;28;19913;-83
2022/03/10 07:38:44;;;;;;;;;;;29.10;99.90;;;;;;5027764;28;19921;-83
2022/03/10 07:41:10;;;;;;;;;;;30.00;99.90;;;;;;5006877;28;19914;-82
2022/03/10 07:43:35;;;;;;;;;;;29.70;99.90;;;;;;5018994;28;19914;-82
2022/03/10 07:46:04;;;;;;;;;;;29.00;99.90;;;;;;5035080;28;20344;-82
2022/03/10 07:48:30;;;;;;;;;;;28.90;99.90;;;;;;5019042;28;19941;-83
2022/03/10 07:50:56;;;;;;;;;;;28.90;99.90;;;;;;5018034;28;19921;-82
2022/03/10 07:53:21;;;;;;;;;;;29.70;99.90;;;;;;5017355;28;19917;-82
2022/03/10 07:55:47;;;;;;;;;;;30.10;99.90;;;;;;5018860;28;19990;-83
2022/03/10 07:58:12;;;;;;;;;;;30.20;99.90;;;;;;5016886;28;19921;-83
2022/03/10 08:00:38;;;;;;;;;;;29.70;99.90;;;;;;5017057;28;19920;-82
2022/03/10 08:03:03;;;;;;;;;;;30.00;99.90;;;;;;5016909;28;19920;-82
2022/03/10 08:05:29;;;;;;;;;;;29.80;99.90;;;;;;5017471;28;19909;-82
2022/03/10 08:07:55;;;;;;;;;;;30.20;99.90;;;;;;5017363;28;19949;-82
2022/03/10 08:10:20;;;;;;;;;;;29.90;99.90;;;;;;5016886;28;19914;-83
2022/03/10 08:12:46;;;;;;;;;;;30.70;99.90;;;;;;5015298;28;19940;-82
2022/03/10 08:15:11;;;;;;;;;;;30.50;99.90;;;;;;5017629;28;20004;-82
2022/03/10 08:17:37;;;;;;;;;;;29.90;99.90;;;;;;5017243;28;20001;-82
2022/03/10 08:20:03;;;;;;;;;;;30.20;99.90;;;;;;5018233;28;19972;-82
2022/03/10 08:22:29;;;;;;;;;;;30.90;99.90;;;;;;5018885;28;19941;-82
2022/03/10 08:24:54;;;;;;;;;;;31.30;99.90;;;;;;5022309;28;19929;-82
2022/03/10 08:27:20;;;;;;;;;;;32.10;99.90;;;;;;5019818;28;19913;-83
2022/03/10 08:29:45;;;;;;;;;;;31.60;99.90;;;;;;5018102;28;19917;-82
2022/03/10 08:32:11;;;;;;;;;;;30.60;99.90;;;;;;5021635;28;20291;-83
2022/03/10 08:34:36;;;;;;;;;;;29.00;99.90;;;;;;5020963;28;19914;-82
2022/03/10 08:37:02;;;;;;;;;;;28.50;99.90;;;;;;5026533;28;20059;-81
2022/03/10 08:39:30;;;;;;;;;;;28.50;99.90;;;;;;5009292;28;20285;-82
2022/03/10 08:41:56;;;;;;;;;;;28.00;99.90;;;;;;5021856;28;20289;-82
2022/03/10 08:44:21;;;;;;;;;;;28.20;99.90;;;;;;5036630;28;19910;-82
2022/03/10 08:46:47;;;;;;;;;;;28.80;99.90;;;;;;5022060;28;19978;-82
2022/03/10 08:49:13;;;;;;;;;;;30.00;99.90;;;;;;5022263;28;19977;-82
2022/03/10 08:51:39;;;;;;;;;;;29.30;99.90;;;;;;5027501;28;19996;-81
2022/03/10 08:54:04;;;;;;;;;;;28.60;99.90;;;;;;5022476;28;20382;-81
2022/03/10 08:56:30;;;;;;;;;;;29.30;99.90;;;;;;5034008;28;19917;-82
2022/03/10 08:58:56;;;;;;;;;;;30.10;99.90;;;;;;5036402;28;20390;-82
2022/03/10 09:01:21;;;;;;;;;;;30.40;99.90;;;;;;5025010;28;20492;-82
2022/03/10 09:03:47;;;;;;;;;;;29.40;99.90;;;;;;5022222;28;19941;-82
2022/03/10 09:06:13;;;;;;;;;;;29.90;99.90;;;;;;5040844;28;20293;-83
2022/03/10 09:08:39;;;;;;;;;;;30.90;99.90;;;;;;5035953;28;19913;-82
2022/03/10 09:11:05;;;;;;;;;;;30.20;99.90;;;;;;5022394;28;19920;-81
2022/03/10 09:13:30;;;;;;;;;;;30.30;99.90;;;;;;5021658;28;19964;-81
2022/03/10 09:15:56;;;;;;;;;;;29.80;99.90;;;;;;5027686;28;19948;-81
2022/03/10 09:18:22;;;;;;;;;;;29.90;99.90;;;;;;5038275;28;20004;-82
2022/03/10 09:20:47;;;;;;;;;;;29.90;99.90;;;;;;5025592;28;19925;-83
2022/03/10 09:23:12;;;;;;;;;;;29.20;99.90;;;;;;5020371;28;19936;-82
2022/03/10 09:25:38;;;;;;;;;;;29.20;99.90;;;;;;5033325;28;20055;-82
2022/03/10 09:28:04;;;;;;;;;;;29.30;99.90;;;;;;5031457;28;19913;-82
2022/03/10 09:30:30;;;;;;;;;;;29.50;99.90;;;;;;5021804;28;19909;-82
2022/03/10 09:32:57;;;;;;;;;;;30.20;99.90;;;;;;5023735;28;19935;-83
2022/03/10 09:35:23;;;;;;;;;;;30.70;99.90;;;;;;5022201;28;19921;-83
2022/03/10 09:37:49;;;;;;;;;;;30.70;99.90;;;;;;5023938;28;19920;-83
2022/03/10 09:40:15;;;;;;;;;;;29.10;99.90;;;;;;5021115;28;19926;-81
2022/03/10 09:42:42;;;;;;;;;;;28.30;99.90;;;;;;5021913;28;19913;-82
2022/03/10 09:45:10;;;;;;;;;;;27.20;99.90;;;;;;5020401;28;19921;-82
2022/03/10 09:47:36;;;;;;;;;;;26.80;99.90;;;;;;5027639;28;19973;-82
2022/03/10 09:50:03;;;;;;;;;;;27.60;99.90;;;;;;5037675;28;19924;-82
2022/03/10 09:52:28;;;;;;;;;;;27.40;99.90;;;;;;5041216;28;19910;-82
2022/03/10 09:54:54;;;;;;;;;;;27.10;99.90;;;;;;5018465;28;19921;-82
2022/03/10 09:57:22;;;;;;;;;;;27.70;99.90;;;;;;5033436;28;19917;-82
2022/03/10 09:59:51;;;;;;;;;;;27.70;99.90;;;;;;5045376;28;20339;-81
2022/03/10 10:02:17;;;;;;;;;;;27.80;99.90;;;;;;5017970;28;19925;-82
2022/03/10 10:04:44;;;;;;;;;;;28.70;99.90;;;;;;5018161;28;19913;-82
2022/03/10 10:07:10;;;;;;;;;;;28.70;99.90;;;;;;5024193;28;19913;-81
2022/03/10 10:09:40;;;;;;;;;;;28.50;99.90;;;;;;5035304;28;19995;-81
2022/03/10 10:12:06;;;;;;;;;;;28.10;99.90;;;;;;5019512;28;19919;-81
2022/03/10 10:14:35;;;;;;;;;;;28.30;99.90;;;;;;5018776;28;19941;-82
2022/03/10 10:17:00;;;;;;;;;;;28.20;99.90;;;;;;5020369;28;19925;-81
2022/03/10 10:19:26;;;;;;;;;;;29.00;99.90;;;;;;5025772;28;20330;-81
2022/03/10 10:22:07;;;;;;;;;;;28.20;99.90;;;;;;5020179;28;19949;-82
2022/03/10 10:24:35;;;;;;;;;;;27.80;99.90;;;;;;5021527;28;20215;-82
2022/03/10 10:27:10;;;;;;;;;;;28.20;99.90;;;;;;5029436;28;19913;-83
2022/03/10 10:29:44;;;;;;;;;;;28.00;99.90;;;;;;5038520;28;19921;-81
2022/03/10 10:32:10;;;;;;;;;;;28.80;99.90;;;;;;5021405;28;20432;-83
2022/03/10 10:34:35;;;;;;;;;;;28.60;99.90;;;;;;5019095;28;19917;-81
2022/03/10 10:37:00;;;;;;;;;;;29.80;99.90;;;;;;5016972;28;20374;-81
2022/03/10 10:39:26;;;;;;;;;;;29.80;99.90;;;;;;5017912;28;19926;-81
2022/03/10 10:41:51;;;;;;;;;;;29.20;99.90;;;;;;5017271;28;19917;-81
2022/03/10 10:44:19;;;;;;;;;;;28.90;99.90;;;;;;5035531;28;19948;-81
2022/03/10 10:46:49;;;;;;;;;;;28.80;99.90;;;;;;5029826;28;19967;-81
2022/03/10 10:49:16;;;;;;;;;;;29.10;99.90;;;;;;5019510;28;19924;-81
2022/03/10 10:51:41;;;;;;;;;;;29.50;99.90;;;;;;5023955;28;19913;-81
2022/03/10 10:54:24;;;;;;;;;;;28.50;99.90;;;;;;5021339;28;19920;-80
2022/03/10 10:56:51;;;;;;;;;;;28.40;99.90;;;;;;5029425;28;20336;-81
2022/03/10 10:59:30;;;;;;;;;;;27.60;99.90;;;;;;5030670;28;19956;-81
2022/03/10 11:02:14;;;;;;;;;;;28.30;99.90;;;;;;5019256;28;19914;-81
2022/03/10 11:04:41;;;;;;;;;;;27.90;99.90;;;;;;5018916;28;20024;-81
2022/03/10 11:07:09;;;;;;;;;;;27.90;99.90;;;;;;5019461;28;19929;-81
2022/03/10 11:09:35;;;;;;;;;;;28.30;99.90;;;;;;5017621;28;20287;-81
2022/03/10 11:12:01;;;;;;;;;;;28.30;99.90;;;;;;5019302;28;19945;-81
2022/03/10 11:14:26;;;;;;;;;;;26.70;99.90;;;;;;5017962;28;19918;-81
2022/03/10 11:16:52;;;;;;;;;;;26.70;99.90;;;;;;5017316;28;19957;-81
2022/03/10 11:19:25;;;;;;;;;;;26.20;99.90;;;;;;5019328;28;19910;-81
2022/03/10 11:22:09;;;;;;;;;;;26.00;99.90;;;;;;5017276;28;20265;-81
2022/03/10 11:24:48;;;;;;;;;;;26.70;99.90;;;;;;5018145;28;19913;-80
2022/03/10 11:27:18;;;;;;;;;;;25.40;99.90;;;;;;5017248;28;20004;-81
2022/03/10 11:29:48;;;;;;;;;;;26.00;99.90;;;;;;5017973;28;19917;-81
2022/03/10 11:32:14;;;;;;;;;;;25.30;99.90;;;;;;5018315;28;20401;-81
2022/03/10 11:34:47;;;;;;;;;;;24.20;99.90;;;;;;5017914;28;19909;-81
2022/03/10 11:37:13;;;;;;;;;;;24.50;99.90;;;;;;5024235;28;19921;-81
2022/03/10 11:39:52;;;;;;;;;;;25.20;99.90;;;;;;5040053;28;19924;-81
2022/03/10 11:42:28;;;;;;;;;;;25.60;99.90;;;;;;5034398;28;19917;-81
2022/03/10 11:45:13;;;;;;;;;;;26.30;99.90;;;;;;5021026;28;19910;-81
2022/03/10 11:47:39;;;;;;;;;;;26.20;99.90;;;;;;5017800;28;20348;-81
2022/03/10 11:50:22;;;;;;;;;;;27.00;99.90;;;;;;5016789;28;19967;-81
2022/03/10 11:52:52;;;;;;;;;;;25.70;99.90;;;;;;5014296;28;19921;-81
2022/03/10 11:55:18;;;;;;;;;;;26.50;99.90;;;;;;5031917;28;19924;-81
2022/03/10 11:58:04;;;;;;;;;;;27.30;99.90;;;;;;5016014;28;20004;-81
2022/03/10 12:00:46;;;;;;;;;;;27.40;99.90;;;;;;5028300;28;19913;-81
2022/03/10 12:03:24;;;;;;;;;;;27.10;99.90;;;;;;5015349;28;20000;-81
2022/03/10 12:05:55;;;;;;;;;;;27.40;99.90;;;;;;5036058;28;19913;-80
2022/03/10 12:08:21;;;;;;;;;;;26.10;99.90;;;;;;5027523;28;20436;-80
2022/03/10 12:10:47;;;;;;;;;;;26.10;99.90;;;;;;5008541;28;19918;-80
2022/03/10 12:13:26;;;;;;;;;;;25.80;99.90;;;;;;5006420;28;19921;-80
2022/03/10 12:15:52;;;;;;;;;;;24.80;99.90;;;;;;5016752;28;19952;-80
2022/03/10 12:18:19;;;;;;;;;;;24.60;99.90;;;;;;5014512;28;19914;-80
2022/03/10 12:20:45;;;;;;;;;;;24.50;99.90;;;;;;5004945;28;19913;-81
2022/03/10 12:23:12;;;;;;;;;;;24.70;99.90;;;;;;5021272;28;20374;-81
2022/03/10 12:25:44;;;;;;;;;;;25.20;99.90;;;;;;5006877;28;19913;-81
2022/03/10 12:28:30;;;;;;;;;;;25.50;99.90;;;;;;5013339;28;19936;-80
2022/03/10 12:31:12;;;;;;;;;;;25.20;99.90;;;;;;5015578;28;19920;-81
2022/03/10 12:33:58;;;;;;;;;;;25.10;99.90;;;;;;5017432;28;19917;-80
2022/03/10 12:36:34;;;;;;;;;;;24.60;99.90;;;;;;5011304;28;19917;-81
2022/03/10 12:39:01;;;;;;;;;;;25.20;99.90;;;;;;5014000;28;19924;-81
2022/03/10 12:41:33;;;;;;;;;;;25.70;99.90;;;;;;5016214;28;19921;-81
2022/03/10 12:43:58;;;;;;;;;;;25.40;99.90;;;;;;5014042;28;19909;-81
2022/03/10 12:46:26;;;;;;;;;;;24.70;99.90;;;;;;5008174;28;20317;-81
2022/03/10 12:48:58;;;;;;;;;;;24.60;99.90;;;;;;4997720;28;19936;-81
2022/03/10 12:51:25;;;;;;;;;;;24.50;99.90;;;;;;5013467;28;19917;-81
2022/03/10 12:53:51;;;;;;;;;;;24.30;99.90;;;;;;5012722;28;19914;-82
2022/03/10 12:56:16;;;;;;;;;;;24.30;99.90;;;;;;5013569;28;19913;-81
2022/03/10 12:58:44;;;;;;;;;;;24.20;99.90;;;;;;5014764;28;19999;-81
2022/03/10 13:01:10;;;;;;;;;;;24.50;99.90;;;;;;5012715;28;19918;-81
2022/03/10 13:03:46;;;;;;;;;;;24.20;99.90;;;;;;5028944;28;19955;-81
2022/03/10 13:06:12;;;;;;;;;;;23.80;99.90;;;;;;5013800;28;19917;-81
2022/03/10 13:08:42;;;;;;;;;;;23.50;99.90;;;;;;5013648;28;19916;-80
2022/03/10 13:11:08;;;;;;;;;;;23.30;99.90;;;;;;5012890;28;19910;-80
2022/03/10 13:13:33;;;;;;;;;;;23.10;99.90;;;;;;5013075;28;20345;-80
2022/03/10 13:16:00;;;;;;;;;;;22.90;99.90;;;;;;5013028;28;19914;-80
2022/03/10 13:18:26;;;;;;;;;;;23.30;99.90;;;;;;5013303;28;19929;-80
2022/03/10 13:20:56;;;;;;;;;;;23.30;99.90;;;;;;5032433;28;19917;-81
2022/03/10 13:23:24;;;;;;;;;;;23.20;99.90;;;;;;5016437;28;20389;-80
2022/03/10 13:25:49;;;;;;;;;;;23.00;99.90;;;;;;5017802;28;19917;-80
2022/03/10 13:28:16;;;;;;;;;;;23.00;99.90;;;;;;5014507;28;19940;-80
2022/03/10 13:30:45;;;;;;;;;;;23.10;99.90;;;;;;5029918;28;20350;-80
2022/03/10 13:33:11;;;;;;;;;;;22.80;99.90;;;;;;5017813;28;19948;-80
2022/03/10 13:35:41;;;;;;;;;;;22.50;99.90;;;;;;5018372;28;20571;-81
2022/03/10 13:38:07;;;;;;;;;;;22.40;99.90;;;;;;5016735;28;19914;-80
2022/03/10 13:40:33;;;;;;;;;;;22.80;99.90;;;;;;5025729;28;19917;-80
2022/03/10 13:43:00;;;;;;;;;;;22.90;99.90;;;;;;5018331;28;19924;-82
2022/03/10 13:45:26;;;;;;;;;;;22.70;99.90;;;;;;5018322;28;19913;-81
2022/03/10 13:47:51;;;;;;;;;;;22.70;99.90;;;;;;5014114;28;19963;-82
2022/03/10 13:50:21;;;;;;;;;;;22.60;99.90;;;;;;5030470;28;19925;-82
2022/03/10 13:52:49;;;;;;;;;;;22.40;99.90;;;;;;5017196;28;20005;-81
2022/03/10 13:55:14;;;;;;;;;;;22.10;99.90;;;;;;5019412;28;19909;-82
2022/03/10 13:57:43;;;;;;;;;;;22.10;99.90;;;;;;5037606;28;19988;-82
2022/03/10 14:00:08;;;;;;;;;;;22.40;99.90;;;;;;5018801;28;19956;-82
2022/03/10 14:02:34;;;;;;;;;;;22.00;99.90;;;;;;5014087;28;20245;-81
2022/03/10 14:05:10;;;;;;;;;;;22.00;99.90;;;;;;4997946;28;20363;-82
2022/03/10 14:07:35;;;;;;;;;;;22.10;99.90;;;;;;5013073;28;19922;-83
2022/03/10 14:10:02;;;;;;;;;;;22.00;99.90;;;;;;5016873;28;19917;-82
2022/03/10 14:12:30;;;;;;;;;;;21.90;99.90;;;;;;5016308;28;19914;-82
2022/03/10 14:14:55;;;;;;;;;;;21.90;99.90;;;;;;5018121;28;19914;-82
2022/03/10 14:17:38;;;;;;;;;;;21.80;99.90;;;;;;5017728;28;19916;-82
2022/03/10 14:20:03;;;;;;;;;;;21.90;99.90;;;;;;5022722;28;19937;-83
2022/03/10 14:22:33;;;;;;;;;;;21.60;99.90;;;;;;5017463;28;20246;-82
2022/03/10 14:24:58;;;;;;;;;;;21.40;99.90;;;;;;5017201;28;19997;-83
2022/03/10 14:27:24;;;;;;;;;;;21.40;99.90;;;;;;5020547;28;19980;-83